Time;durP1;ratioP1;P1;durP2;ratioP2;P2;SDS_P1;SDS_P2;PMS_P1;PMS_P2;Temp;Humidity;BMP_temperature;BMP_pressure;BME280_temperature;BME280_humidity;BME280_pressure;Samples;Min_cycle;Max_cycle;Signal;HPM_P1;HPM_P2
2022/04/24 00:01:02;;;;;;;27.80;19.33;;;;;;;5.07;71.42;99710.52;1727517;82;21044;-73
2022/04/24 00:03:29;;;;;;;30.03;19.50;;;;;;;5.07;71.53;99711.81;1723159;82;21177;-80
2022/04/24 00:05:57;;;;;;;27.93;19.97;;;;;;;5.08;71.62;99710.06;1720627;82;21526;-73
2022/04/24 00:08:24;;;;;;;26.30;18.00;;;;;;;5.05;71.56;99710.14;1690349;84;21016;-73
2022/04/24 00:10:51;;;;;;;24.53;17.90;;;;;;;5.03;71.53;99707.58;1681029;85;21096;-74
2022/04/24 00:13:18;;;;;;;26.53;18.17;;;;;;;5.07;71.73;99693.63;1729956;82;21103;-73
2022/04/24 00:15:45;;;;;;;24.80;17.10;;;;;;;5.04;71.57;99698.03;1730733;82;21115;-73
2022/04/24 00:18:12;;;;;;;25.10;17.20;;;;;;;5.02;71.76;99691.59;1728436;82;21008;-73
2022/04/24 00:20:39;;;;;;;26.27;17.17;;;;;;;5.02;71.80;99689.45;1735185;82;21044;-73
2022/04/24 00:23:07;;;;;;;23.23;17.10;;;;;;;4.99;71.71;99691.67;1722249;82;21488;-74
2022/04/24 00:25:34;;;;;;;21.33;16.27;;;;;;;4.95;71.77;99679.64;1726540;82;21041;-74
2022/04/24 00:28:02;;;;;;;22.97;16.53;;;;;;;4.95;71.84;99677.05;1733904;82;21098;-74
2022/04/24 00:30:29;;;;;;;22.87;16.10;;;;;;;4.94;71.85;99675.36;1712005;82;21030;-79
2022/04/24 00:32:56;;;;;;;23.50;17.20;;;;;;;4.92;71.80;99677.12;1724297;82;21003;-74
2022/04/24 00:35:23;;;;;;;21.83;16.47;;;;;;;4.88;71.77;99681.56;1721463;82;21040;-74
2022/04/24 00:37:50;;;;;;;23.63;16.87;;;;;;;4.86;71.92;99679.44;1726094;82;21059;-74
2022/04/24 00:40:19;;;;;;;23.70;16.40;;;;;;;4.83;71.81;99675.63;1729380;82;21107;-74
2022/04/24 00:42:46;;;;;;;21.50;15.47;;;;;;;4.84;72.04;99673.42;1730142;82;21045;-74
2022/04/24 00:45:13;;;;;;;25.33;15.97;;;;;;;4.90;72.12;99675.01;1732337;82;21029;-74
2022/04/24 00:47:42;;;;;;;24.73;17.07;;;;;;;4.88;72.07;99671.63;1729445;82;21005;-74
2022/04/24 00:50:10;;;;;;;24.10;16.37;;;;;;;4.83;71.95;99669.12;1728675;82;21228;-74
2022/04/24 00:52:37;;;;;;;21.70;16.43;;;;;;;4.77;71.92;99665.39;1725800;81;21961;-74
2022/04/24 00:55:06;;;;;;;23.37;16.20;;;;;;;4.75;71.88;99662.43;1722237;81;21022;-74
2022/04/24 00:57:35;;;;;;;24.70;16.10;;;;;;;4.70;72.04;99663.83;1732871;82;21503;-75
2022/04/24 01:00:04;;;;;;;23.17;16.23;;;;;;;4.70;72.20;99662.53;1732770;82;21234;-74
2022/04/24 01:02:31;;;;;;;24.30;16.07;;;;;;;4.68;72.13;99660.41;1728549;82;21055;-80
2022/04/24 01:04:59;;;;;;;24.53;16.67;;;;;;;4.66;72.24;99659.63;1727184;82;21310;-74
2022/04/24 01:07:26;;;;;;;21.67;15.53;;;;;;;4.65;72.17;99659.20;1726762;82;21009;-74
2022/04/24 01:09:53;;;;;;;22.47;17.00;;;;;;;4.63;72.22;99656.66;1727179;82;21023;-72
2022/04/24 01:12:20;;;;;;;25.93;16.80;;;;;;;4.65;72.44;99656.59;1734071;82;21005;-76
2022/04/24 01:14:47;;;;;;;23.27;16.87;;;;;;;4.66;72.46;99648.78;1726950;82;21084;-73
2022/04/24 01:17:15;;;;;;;24.90;18.17;;;;;;;4.65;72.44;99654.84;1729593;81;21620;-73
2022/04/24 01:19:42;;;;;;;27.10;18.97;;;;;;;4.68;72.68;99656.09;1730485;82;21107;-73
2022/04/24 01:22:09;;;;;;;28.50;18.27;;;;;;;4.71;72.67;99653.84;1731023;82;21078;-73
2022/04/24 01:24:36;;;;;;;29.33;19.97;;;;;;;4.75;72.82;99654.64;1733100;82;21191;-78
2022/04/24 01:27:04;;;;;;;31.37;19.83;;;;;;;4.78;72.84;99648.91;1726296;82;21568;-73
2022/04/24 01:29:31;;;;;;;32.97;21.00;;;;;;;4.82;72.87;99647.09;1729365;82;21129;-73
2022/04/24 01:31:58;;;;;;;33.33;21.47;;;;;;;4.85;72.90;99653.08;1718346;82;21006;-73
2022/04/24 01:34:24;;;;;;;35.20;22.70;;;;;;;4.91;72.90;99653.36;1715705;83;21059;-72
2022/04/24 01:36:51;;;;;;;34.73;23.17;;;;;;;4.96;72.95;99641.53;1713827;82;21494;-78
2022/04/24 01:39:18;;;;;;;37.10;24.47;;;;;;;5.00;72.90;99642.72;1707655;82;21108;-73
2022/04/24 01:41:45;;;;;;;36.93;22.67;;;;;;;5.02;72.81;99643.55;1715501;83;21068;-73
2022/04/24 01:44:13;;;;;;;33.43;22.53;;;;;;;5.02;72.71;99642.70;1712498;82;21532;-74
2022/04/24 01:46:40;;;;;;;31.80;20.63;;;;;;;4.97;72.48;99640.21;1714106;83;21530;-79
2022/04/24 01:49:07;;;;;;;34.00;20.70;;;;;;;4.91;72.32;99646.88;1716631;83;21035;-72
2022/04/24 01:51:34;;;;;;;34.50;21.50;;;;;;;4.86;72.38;99651.33;1717667;82;21076;-73
2022/04/24 01:54:01;;;;;;;32.23;19.90;;;;;;;4.82;72.36;99643.19;1717976;82;21186;-75
2022/04/24 01:56:28;;;;;;;29.87;20.20;;;;;;;4.76;72.26;99636.86;1715970;83;21001;-73
2022/04/24 01:58:55;;;;;;;31.60;21.33;;;;;;;4.70;72.22;99646.95;1716484;82;21066;-72
2022/04/24 02:01:22;;;;;;;30.07;21.10;;;;;;;4.63;72.26;99647.56;1716456;82;20992;-73
2022/04/24 02:03:49;;;;;;;34.00;22.13;;;;;;;4.58;72.38;99645.53;1713627;82;21500;-73
2022/04/24 02:06:16;;;;;;;33.57;22.00;;;;;;;4.53;72.41;99646.08;1713542;82;21490;-72
2022/04/24 02:08:43;;;;;;;32.47;22.07;;;;;;;4.50;72.44;99642.72;1717142;82;21569;-73
2022/04/24 02:11:10;;;;;;;36.83;22.43;;;;;;;4.46;72.56;99644.51;1713361;82;21056;-73
2022/04/24 02:13:37;;;;;;;30.87;21.27;;;;;;;4.44;72.69;99641.13;1712827;82;21112;-76
2022/04/24 02:16:05;;;;;;;36.63;22.53;;;;;;;4.42;72.78;99637.70;1714681;83;21001;-72
2022/04/24 02:18:33;;;;;;;32.47;21.57;;;;;;;4.40;72.93;99635.13;1715248;82;21064;-72
2022/04/24 02:21:00;;;;;;;31.27;20.37;;;;;;;4.38;72.83;99634.34;1715971;82;21055;-73
2022/04/24 02:23:27;;;;;;;30.40;20.70;;;;;;;4.30;72.73;99637.56;1714364;82;21517;-73
2022/04/24 02:25:54;;;;;;;31.13;21.37;;;;;;;4.25;72.71;99632.47;1712419;83;21560;-73
2022/04/24 02:28:21;;;;;;;34.87;21.43;;;;;;;4.16;72.60;99628.80;1714099;82;21079;-73
2022/04/24 02:30:48;;;;;;;31.23;21.43;;;;;;;4.11;72.75;99625.46;1715829;82;21185;-73
2022/04/24 02:33:15;;;;;;;32.00;21.23;;;;;;;4.08;72.96;99628.13;1714892;82;21530;-73
2022/04/24 02:35:42;;;;;;;34.20;20.83;;;;;;;4.02;72.97;99627.82;1715775;82;21572;-73
2022/04/24 02:38:09;;;;;;;29.70;20.47;;;;;;;3.97;72.99;99625.77;1718539;83;21013;-73
2022/04/24 02:40:37;;;;;;;27.67;20.10;;;;;;;3.92;73.00;99615.95;1718320;82;21081;-73
2022/04/24 02:43:05;;;;;;;31.13;20.87;;;;;;;3.88;73.27;99619.51;1717390;82;21122;-72
2022/04/24 02:45:32;;;;;;;32.43;21.60;;;;;;;3.86;73.18;99617.83;1717819;82;20995;-73
2022/04/24 02:47:59;;;;;;;33.73;21.73;;;;;;;3.82;73.34;99614.88;1712894;82;21035;-73
2022/04/24 02:50:26;;;;;;;33.90;22.07;;;;;;;3.81;73.66;99612.73;1716313;82;22073;-80
2022/04/24 02:52:55;;;;;;;33.87;21.57;;;;;;;3.79;73.53;99610.17;1713972;82;21147;-73
2022/04/24 02:55:25;;;;;;;30.63;20.97;;;;;;;3.79;73.69;99602.84;1713168;82;21081;-73
2022/04/24 02:57:53;;;;;;;32.27;21.30;;;;;;;3.77;73.72;99599.00;1714847;83;21466;-73
2022/04/24 03:00:39;;;;;;;33.57;21.40;;;;;;;3.74;73.76;99600.38;1714013;82;21036;-73
2022/04/24 03:02:56;;;;;;;30.77;20.70;;;;;;;3.71;73.74;99592.63;1713622;82;21007;-77
2022/04/24 03:05:24;;;;;;;31.77;21.00;;;;;;;3.71;73.86;99593.08;1716371;82;21032;-73
2022/04/24 03:07:51;;;;;;;35.37;20.93;;;;;;;3.69;73.96;99592.29;1714837;82;21957;-72
2022/04/24 03:10:19;;;;;;;33.87;20.20;;;;;;;3.66;73.85;99587.14;1716188;82;21118;-73
2022/04/24 03:12:47;;;;;;;29.10;20.17;;;;;;;3.60;73.88;99581.65;1714265;82;21043;-73
2022/04/24 03:15:15;;;;;;;29.30;19.40;;;;;;;3.61;74.08;99584.67;1716890;82;21024;-73
2022/04/24 03:17:44;;;;;;;31.27;20.10;;;;;;;3.63;74.24;99576.84;1715936;83;21026;-73
2022/04/24 03:20:13;;;;;;;33.47;20.27;;;;;;;3.60;74.23;99576.47;1716383;82;21470;-72
2022/04/24 03:22:40;;;;;;;30.53;20.63;;;;;;;3.58;74.16;99571.34;1715658;82;21000;-73
2022/04/24 03:25:10;;;;;;;28.53;19.87;;;;;;;3.56;74.26;99573.10;1713282;83;21063;-73
2022/04/24 03:27:39;;;;;;;29.70;20.35;;;;;;;3.57;74.42;99567.47;1715496;82;21532;-73
2022/04/24 03:30:12;;;;;;;30.50;20.07;;;;;;;3.57;74.43;99567.05;1716513;82;21009;-72
2022/04/24 03:32:40;;;;;;;29.90;19.80;;;;;;;3.56;74.41;99567.07;1716976;82;21169;-73
2022/04/24 03:35:10;;;;;;;33.37;20.33;;;;;;;3.52;74.45;99561.11;1716935;82;20916;-73
2022/04/24 03:37:38;;;;;;;27.90;19.45;;;;;;;3.53;74.59;99565.40;1714901;82;21098;-72
2022/04/24 03:40:07;;;;;;;29.03;20.40;;;;;;;3.52;74.55;99561.11;1714071;82;20977;-78
2022/04/24 03:42:35;;;;;;;32.50;20.57;;;;;;;3.51;74.65;99563.72;1718254;83;21031;-72
2022/04/24 03:45:11;;;;;;;27.33;19.17;;;;;;;3.51;74.74;99559.84;1717539;82;21290;-73
2022/04/24 03:47:34;;;;;;;32.67;18.57;;;;;;;3.53;74.93;99556.78;1706639;83;21532;-73
2022/04/24 03:50:00;;;;;;;28.77;18.37;;;;;;;3.56;74.95;99558.85;1714417;82;20929;-74
2022/04/24 03:52:28;;;;;;;32.13;19.57;;;;;;;3.56;74.84;99558.85;1717747;82;21504;-72
2022/04/24 03:54:55;;;;;;;30.50;19.43;;;;;;;3.58;75.10;99556.23;1716697;83;21580;-78
2022/04/24 03:57:23;;;;;;;30.97;19.60;;;;;;;3.71;75.61;99561.53;1712948;82;21146;-72
2022/04/24 03:59:50;;;;;;;31.60;19.97;;;;;;;3.82;75.71;99558.70;1722381;82;21463;-73
2022/04/24 04:02:17;;;;;;;29.90;20.40;;;;;;;3.94;75.85;99558.89;1709093;82;21020;-73
2022/04/24 04:04:44;;;;;;;31.70;20.60;;;;;;;4.07;76.01;99553.79;1725987;82;21177;-76
2022/04/24 04:07:10;;;;;;;29.57;18.77;;;;;;;4.19;76.02;99552.66;1723001;82;21134;-73
2022/04/24 04:09:38;;;;;;;27.93;18.27;;;;;;;4.31;76.07;99557.53;1727470;82;21092;-73
2022/04/24 04:12:06;;;;;;;26.80;17.20;;;;;;;4.45;75.96;99553.30;1729227;82;21060;-73
2022/04/24 04:14:33;;;;;;;27.67;17.60;;;;;;;4.56;75.78;99555.16;1726390;82;21024;-73
2022/04/24 04:17:00;;;;;;;29.20;17.83;;;;;;;4.64;75.65;99554.97;1722264;82;21465;-80
2022/04/24 04:19:27;;;;;;;26.50;16.60;;;;;;;4.67;75.39;99559.63;1718904;82;21613;-76
2022/04/24 04:21:55;;;;;;;24.43;15.80;;;;;;;4.74;75.37;99559.04;1710389;82;21119;-73
2022/04/24 04:24:21;;;;;;;22.70;15.67;;;;;;;4.86;75.45;99559.15;1695334;82;21090;-81
2022/04/24 04:26:48;;;;;;;22.83;15.67;;;;;;;5.00;75.42;99554.88;1722989;82;21169;-77
2022/04/24 04:29:15;;;;;;;24.87;16.87;;;;;;;5.12;75.35;99560.56;1723081;82;21016;-73
2022/04/24 04:31:42;;;;;;;23.80;16.83;;;;;;;5.23;75.21;99566.75;1724000;82;21563;-80
2022/04/24 04:34:09;;;;;;;21.80;15.47;;;;;;;5.37;75.12;99567.20;1726090;82;21070;-72
2022/04/24 04:36:36;;;;;;;27.23;16.47;;;;;;;5.48;75.08;99568.64;1725067;82;20896;-72
2022/04/24 04:39:03;;;;;;;23.07;14.40;;;;;;;5.60;74.89;99570.90;1726845;82;21051;-72
2022/04/24 04:41:30;;;;;;;24.43;15.47;;;;;;;5.69;74.64;99568.02;1728522;82;21418;-73
2022/04/24 04:43:57;;;;;;;20.47;14.53;;;;;;;5.78;74.54;99562.97;1726242;82;21157;-75
2022/04/24 04:46:24;;;;;;;22.07;15.40;;;;;;;5.85;74.28;99566.22;1686716;82;21040;-78
2022/04/24 04:48:51;;;;;;;21.77;14.67;;;;;;;5.92;74.19;99566.45;1657605;85;21059;-73
2022/04/24 04:51:17;;;;;;;21.70;14.47;;;;;;;5.99;74.06;99566.25;1716251;82;21001;-72
2022/04/24 04:53:44;;;;;;;21.93;14.40;;;;;;;6.03;73.95;99569.14;1723520;82;21076;-75
2022/04/24 04:56:11;;;;;;;19.70;14.10;;;;;;;6.10;73.89;99567.67;1726811;82;20989;-72
2022/04/24 04:58:38;;;;;;;22.13;13.77;;;;;;;6.17;73.75;99568.70;1729366;82;21082;-79
2022/04/24 05:01:06;;;;;;;19.23;13.40;;;;;;;6.26;73.73;99575.35;1729933;82;20985;-72
2022/04/24 05:03:33;;;;;;;21.00;14.37;;;;;;;6.35;73.63;99573.77;1727805;82;21078;-72
2022/04/24 05:06:00;;;;;;;19.37;13.03;;;;;;;6.43;73.50;99576.97;1726901;82;20999;-73
2022/04/24 05:08:27;;;;;;;18.97;13.53;;;;;;;6.51;73.39;99578.45;1724641;82;21008;-72
2022/04/24 05:10:54;;;;;;;16.83;13.33;;;;;;;6.59;73.33;99581.65;1734649;82;21693;-73
2022/04/24 05:13:21;;;;;;;18.90;13.00;;;;;;;6.65;73.17;99574.50;1713934;82;21122;-73
2022/04/24 05:15:48;;;;;;;18.93;12.17;;;;;;;6.75;73.07;99578.08;1725041;82;21047;-73
2022/04/24 05:18:15;;;;;;;19.83;12.77;;;;;;;6.84;73.02;99582.50;1711217;82;21036;-73
2022/04/24 05:20:45;;;;;;;17.47;12.30;;;;;;;6.95;72.92;99578.67;1732995;82;20985;-80
2022/04/24 05:23:12;;;;;;;16.07;12.25;;;;;;;7.04;72.83;99575.31;1723195;82;21130;-80
2022/04/24 05:25:39;;;;;;;17.40;12.10;;;;;;;7.13;72.73;99574.13;1729581;82;21027;-80
2022/04/24 05:28:07;;;;;;;17.43;11.67;;;;;;;7.23;72.53;99575.47;1730517;82;21302;-81
2022/04/24 05:30:34;;;;;;;17.43;11.57;;;;;;;7.34;72.40;99577.69;1715121;82;21088;-72
2022/04/24 05:33:02;;;;;;;18.97;12.13;;;;;;;7.42;72.20;99576.95;1702062;83;21354;-73
2022/04/24 05:35:29;;;;;;;14.63;10.73;;;;;;;7.51;72.07;99579.66;1699431;84;21125;-72
2022/04/24 05:37:57;;;;;;;15.63;11.37;;;;;;;7.60;71.84;99584.55;1701117;84;21447;-71
2022/04/24 05:40:24;;;;;;;17.37;11.60;;;;;;;7.67;71.73;99579.48;1705229;83;21053;-72
2022/04/24 05:42:54;;;;;;;13.63;10.97;;;;;;;7.75;71.72;99576.13;1698315;84;21077;-72
2022/04/24 05:45:24;;;;;;;18.60;11.88;;;;;;;7.82;71.51;99568.47;1701461;83;21021;-75
2022/04/24 05:47:54;;;;;;;18.13;12.20;;;;;;;7.91;71.29;99575.09;1701902;83;21114;-74
2022/04/24 05:50:23;;;;;;;19.23;11.73;;;;;;;7.99;71.18;99574.79;1699121;84;22128;-73
2022/04/24 05:52:52;;;;;;;16.73;11.63;;;;;;;8.09;71.10;99573.95;1698276;83;21021;-78
2022/04/24 05:55:18;;;;;;;14.60;11.33;;;;;;;8.19;70.88;99575.29;1706383;83;21598;-73
2022/04/24 05:57:45;;;;;;;17.17;11.77;;;;;;;8.29;70.71;99575.78;1699553;83;21090;-74
2022/04/24 06:00:13;;;;;;;17.77;10.93;;;;;;;8.37;70.49;99570.64;1702014;83;21114;-74
2022/04/24 06:02:40;;;;;;;18.10;11.60;;;;;;;8.47;70.46;99564.59;1700101;83;20950;-74
2022/04/24 06:05:08;;;;;;;17.73;12.00;;;;;;;8.57;70.11;99560.69;1699651;84;21607;-73
2022/04/24 06:07:35;;;;;;;18.17;12.77;;;;;;;8.68;70.02;99564.16;1698759;83;21606;-76
2022/04/24 06:10:05;;;;;;;18.53;11.67;;;;;;;8.77;69.72;99554.61;1703402;83;21030;-74
2022/04/24 06:12:32;;;;;;;20.43;12.27;;;;;;;8.88;69.65;99560.69;1703842;84;21861;-75
2022/04/24 06:15:05;;;;;;;16.93;12.60;;;;;;;8.98;69.44;99555.89;1700808;83;21496;-76
2022/04/24 06:17:32;;;;;;;17.03;12.73;;;;;;;9.06;69.09;99549.44;1699294;84;21678;-75
2022/04/24 06:19:59;;;;;;;18.23;12.60;;;;;;;9.15;69.07;99550.32;1699250;84;21057;-76
2022/04/24 06:22:26;;;;;;;18.03;11.53;;;;;;;9.25;68.96;99553.35;1703805;84;21110;-76
2022/04/24 06:24:53;;;;;;;15.73;11.00;;;;;;;9.34;68.57;99551.65;1701155;84;21096;-75
2022/04/24 06:27:20;;;;;;;16.60;11.07;;;;;;;9.41;68.40;99549.59;1699709;84;21041;-75
2022/04/24 06:29:47;;;;;;;16.43;11.33;;;;;;;9.48;68.20;99544.48;1694635;84;21057;-75
2022/04/24 06:32:14;;;;;;;19.40;11.67;;;;;;;9.55;67.94;99547.19;1693648;84;21068;-75
2022/04/24 06:34:41;;;;;;;18.73;10.80;;;;;;;9.63;67.67;99542.91;1698866;84;21041;-75
2022/04/24 06:37:08;;;;;;;18.03;12.07;;;;;;;9.71;67.48;99534.23;1718360;82;21953;-77
2022/04/24 06:39:35;;;;;;;17.37;12.00;;;;;;;9.78;67.70;99534.35;1721483;82;21182;-77
2022/04/24 06:42:03;;;;;;;18.43;12.17;;;;;;;9.88;67.36;99528.20;1720997;82;21145;-74
2022/04/24 06:44:29;;;;;;;16.23;12.13;;;;;;;9.97;67.37;99525.59;1718788;82;21044;-76
2022/04/24 06:46:57;;;;;;;18.87;11.93;;;;;;;10.04;67.17;99521.30;1716845;82;21165;-75
2022/04/24 06:49:24;;;;;;;16.00;11.47;;;;;;;10.15;67.05;99522.55;1731743;82;21922;-75
2022/04/24 06:51:51;;;;;;;18.20;11.97;;;;;;;10.22;66.83;99514.77;1728887;82;21573;-76
2022/04/24 06:54:17;;;;;;;17.33;12.27;;;;;;;10.30;66.65;99519.19;1725990;82;21051;-75
2022/04/24 06:56:44;;;;;;;15.17;11.70;;;;;;;10.38;66.50;99520.13;1728675;82;21059;-75
2022/04/24 06:59:11;;;;;;;17.93;11.40;;;;;;;10.44;66.28;99510.17;1725963;82;21106;-77
2022/04/24 07:01:38;;;;;;;16.07;10.03;;;;;;;10.53;66.14;99502.34;1704289;82;21138;-75
2022/04/24 07:04:05;;;;;;;21.20;11.53;;;;;;;10.64;66.02;99501.75;1712369;82;21039;-75
2022/04/24 07:06:32;;;;;;;15.33;10.13;;;;;;;10.75;65.78;99500.73;1727853;82;22110;-75
2022/04/24 07:09:00;;;;;;;15.70;9.90;;;;;;;10.84;65.55;99497.66;1724707;82;20999;-74
2022/04/24 07:11:27;;;;;;;17.47;10.70;;;;;;;10.97;65.60;99492.59;1729116;82;21592;-76
2022/04/24 07:13:53;;;;;;;15.20;10.27;;;;;;;11.10;65.30;99492.80;1730010;82;21130;-74
2022/04/24 07:16:23;;;;;;;16.57;11.07;;;;;;;11.20;65.04;99479.58;1721163;82;21072;-76
2022/04/24 07:18:52;;;;;;;13.60;9.17;;;;;;;11.30;64.85;99472.88;1700702;84;21077;-80
2022/04/24 07:21:19;;;;;;;14.03;9.37;;;;;;;11.44;64.85;99464.25;1701182;83;21013;-77
2022/04/24 07:23:46;;;;;;;12.03;8.80;;;;;;;11.55;64.40;99459.72;1689806;84;21050;-76
2022/04/24 07:26:13;;;;;;;12.47;7.75;;;;;;;11.63;64.12;99464.06;1695579;83;21351;-78
2022/04/24 07:28:40;;;;;;;13.20;8.13;;;;;;;11.73;63.73;99456.06;1702391;83;21534;-77
2022/04/24 07:31:07;;;;;;;10.15;6.75;;;;;;;11.83;63.65;99450.67;1686735;84;21094;-78
2022/04/24 07:33:35;;;;;;;10.68;7.17;;;;;;;11.96;63.33;99450.83;1701131;83;21072;-78
2022/04/24 07:36:04;;;;;;;11.40;6.95;;;;;;;12.08;63.43;99447.95;1701268;83;21064;-78
2022/04/24 07:38:31;;;;;;;10.35;6.30;;;;;;;12.22;63.15;99452.39;1694846;83;21141;-78
2022/04/24 07:40:59;;;;;;;7.28;5.85;;;;;;;12.36;62.71;99442.38;1701427;84;21017;-78
2022/04/24 07:43:25;;;;;;;7.25;5.10;;;;;;;12.47;62.52;99442.14;1697750;83;21030;-77
2022/04/24 07:45:53;;;;;;;8.08;5.97;;;;;;;12.59;61.94;99447.59;1696965;83;21056;-77
2022/04/24 07:48:20;;;;;;;7.17;4.95;;;;;;;12.67;61.55;99444.87;1692711;83;21122;-77
2022/04/24 07:50:50;;;;;;;8.28;5.20;;;;;;;12.72;61.04;99444.13;1694393;83;21146;-78
2022/04/24 07:53:19;;;;;;;8.28;5.42;;;;;;;12.82;60.92;99450.13;1700124;83;25735;-78
2022/04/24 07:55:48;;;;;;;8.45;5.60;;;;;;;12.92;60.61;99444.20;1697213;83;21060;-77
2022/04/24 07:58:16;;;;;;;8.60;5.58;;;;;;;13.02;60.35;99445.78;1698405;83;21118;-76
2022/04/24 08:00:44;;;;;;;8.90;5.45;;;;;;;13.12;59.99;99442.95;1694131;83;21115;-78
2022/04/24 08:03:13;;;;;;;7.45;4.80;;;;;;;13.19;59.34;99439.48;1698823;83;21402;-79
2022/04/24 08:05:47;;;;;;;7.30;4.87;;;;;;;13.22;58.88;99449.81;1699493;83;21075;-78
2022/04/24 08:08:17;;;;;;;6.87;4.90;;;;;;;13.31;58.79;99458.95;1706663;83;22234;-78
2022/04/24 08:10:49;;;;;;;;;;;;;;;13.42;58.65;99457.79;1702821;83;21086;-79
2022/04/24 08:13:20;;;;;;;6.25;5.05;;;;;;;13.54;57.74;99459.63;1702916;83;20555;-76
2022/04/24 08:15:48;;;;;;;5.25;4.53;;;;;;;13.65;57.93;99465.52;1701708;83;21194;-77
2022/04/24 08:18:16;;;;;;;7.35;4.70;;;;;;;13.76;57.48;99469.61;1697122;83;21015;-78
2022/04/24 08:20:45;;;;;;;7.05;4.70;;;;;;;13.87;57.31;99459.70;1701798;83;21548;-76
2022/04/24 08:23:17;;;;;;;8.30;4.70;;;;;;;14.01;56.78;99457.47;1696272;83;21110;-77
2022/04/24 08:25:46;;;;;;;8.18;4.35;;;;;;;14.11;56.21;99455.92;1692933;83;21055;-78
2022/04/24 08:28:15;;;;;;;5.80;4.50;;;;;;;14.25;56.26;99449.25;1704375;83;22358;-77
2022/04/24 08:30:46;;;;;;;9.03;4.50;;;;;;;14.43;56.21;99441.03;1693592;83;21121;-78
2022/04/24 08:33:15;;;;;;;6.58;4.47;;;;;;;14.60;55.68;99437.27;1692052;83;21040;-77
2022/04/24 08:35:42;;;;;;;6.28;4.10;;;;;;;14.70;55.21;99431.26;1701211;83;21111;-78
2022/04/24 08:38:10;;;;;;;6.83;4.42;;;;;;;14.78;54.88;99423.30;1701502;83;21542;-78
2022/04/24 08:40:37;;;;;;;6.05;4.40;;;;;;;14.81;54.42;99423.08;1699244;83;21205;-78
2022/04/24 08:43:05;;;;;;;5.92;4.12;;;;;;;14.79;54.12;99417.06;1699857;83;21679;-79
2022/04/24 08:45:33;;;;;;;6.97;4.62;;;;;;;14.73;53.68;99413.89;1696229;83;20996;-78
2022/04/24 08:48:04;;;;;;;6.03;3.80;;;;;;;14.79;53.60;99417.90;1699746;83;22533;-78
2022/04/24 08:50:32;;;;;;;5.47;4.42;;;;;;;14.91;53.56;99413.09;1701424;83;21513;-78
2022/04/24 08:53:00;;;;;;;5.28;3.87;;;;;;;15.10;53.06;99419.23;1698453;84;21522;-78
2022/04/24 08:55:30;;;;;;;5.80;3.90;;;;;;;15.18;52.55;99425.26;1693311;83;21043;-77
2022/04/24 08:57:57;;;;;;;6.25;4.58;;;;;;;15.25;52.35;99429.16;1686224;83;21113;-79
2022/04/24 09:00:27;;;;;;;5.42;4.17;;;;;;;15.25;51.67;99439.72;1695184;84;21581;-78
2022/04/24 09:02:57;;;;;;;5.37;4.15;;;;;;;15.18;51.29;99447.21;1702789;83;21051;-78
2022/04/24 09:05:24;;;;;;;6.53;4.10;;;;;;;15.16;50.97;99441.70;1698161;83;21151;-78
2022/04/24 09:07:53;;;;;;;6.25;4.35;;;;;;;15.21;50.83;99444.00;1700622;84;21044;-78
2022/04/24 09:10:20;;;;;;;6.47;4.12;;;;;;;15.23;50.54;99439.45;1697580;83;21115;-79
2022/04/24 09:12:54;;;;;;;8.93;5.92;;;;;;;15.19;50.21;99437.52;1698753;83;21071;-79
2022/04/24 09:15:21;;;;;;;8.43;4.75;;;;;;;15.20;50.16;99435.23;1701292;83;21088;-78
2022/04/24 09:17:48;;;;;;;5.05;3.72;;;;;;;15.23;49.97;99444.26;1701950;83;21958;-77
2022/04/24 09:20:20;;;;;;;4.37;3.40;;;;;;;15.29;49.71;99437.21;1697411;84;21089;-78
2022/04/24 09:22:47;;;;;;;4.92;3.15;;;;;;;15.33;49.28;99436.05;1700620;83;21111;-78
2022/04/24 09:25:15;;;;;;;6.45;3.85;;;;;;;15.44;49.46;99436.60;1701932;83;21091;-78
2022/04/24 09:27:42;;;;;;;7.33;5.95;;;;;;;15.51;49.01;99432.54;1699582;83;21020;-77
2022/04/24 09:30:14;;;;;;;5.42;3.02;;;;;;;15.60;48.42;99421.78;1697503;83;21121;-78
2022/04/24 09:32:51;;;;;;;6.87;2.85;;;;;;;15.66;48.23;99428.41;1693320;84;21096;-78
2022/04/24 09:35:33;;;;;;;3.85;3.20;;;;;;;15.72;48.09;99426.69;1698620;83;21012;-77
2022/04/24 09:38:14;;;;;;;4.12;2.58;;;;;;;15.77;47.91;99424.55;1713966;82;21112;-77
2022/04/24 09:40:48;;;;;;;5.10;3.37;;;;;;;15.79;47.47;99407.60;1718154;82;21067;-78
2022/04/24 09:43:22;;;;;;;3.90;2.72;;;;;;;15.88;47.18;99405.23;1729667;82;21091;-78
2022/04/24 09:45:55;;;;;;;4.37;2.80;;;;;;;16.15;47.60;99389.09;1716372;82;21079;-77
2022/04/24 09:48:23;;;;;;;3.72;2.80;;;;;;;16.54;47.46;99391.79;1728323;82;21024;-82
2022/04/24 09:50:51;;;;;;;3.70;2.58;;;;;;;16.86;47.12;99380.53;1734652;82;21095;-78
2022/04/24 09:53:22;;;;;;;2.62;2.40;;;;;;;17.11;46.50;99386.03;1716890;82;21005;-75
2022/04/24 09:55:50;;;;;;;3.95;3.40;;;;;;;17.29;46.16;99381.05;1726543;82;21162;-75
2022/04/24 09:58:21;;;;;;;5.90;3.05;;;;;;;17.51;45.24;99392.89;1729762;82;21052;-76
2022/04/24 10:00:50;;;;;;;5.80;2.95;;;;;;;17.52;44.87;99392.44;1722350;82;21614;-76
2022/04/24 10:03:19;;;;;;;4.10;2.80;;;;;;;17.61;44.70;99389.02;1714569;82;21576;-76
2022/04/24 10:05:49;;;;;;;6.47;3.33;;;;;;;17.77;44.74;99384.13;1696128;82;21044;-78
2022/04/24 10:08:19;;;;;;;8.65;5.95;;;;;;;17.92;44.44;99389.98;1692392;82;22001;-77
2022/04/24 10:10:47;;;;;;;6.12;4.70;;;;;;;17.79;43.70;99380.05;1729044;82;21000;-76
2022/04/24 10:13:15;;;;;;;7.50;4.85;;;;;;;17.71;43.66;99385.98;1725399;82;21488;-76
2022/04/24 10:16:03;;;;;;;8.65;3.30;;;;;;;17.52;43.18;99392.44;1713459;82;21082;-76
2022/04/24 10:18:58;;;;;;;3.90;3.47;;;;;;;17.33;43.21;99397.06;1726098;82;21194;-76
2022/04/24 10:21:57;;;;;;;5.25;3.62;;;;;;;17.09;43.31;99397.22;1730798;82;22094;-79
2022/04/24 10:24:24;;;;;;;5.28;3.20;;;;;;;16.91;43.51;99396.41;1722440;82;21024;-75
2022/04/24 10:26:57;;;;;;;8.00;4.80;;;;;;;16.77;43.85;99391.86;1732406;82;21052;-74
2022/04/24 10:29:24;;;;;;;18.90;10.32;;;;;;;16.64;43.67;99382.19;1730194;82;21024;-76
2022/04/24 10:31:52;;;;;;;4.75;3.33;;;;;;;16.44;43.43;99380.27;1728461;82;21079;-74
2022/04/24 10:34:20;;;;;;;4.47;3.52;;;;;;;16.35;43.82;99369.92;1723288;82;21977;-75
2022/04/24 10:36:56;;;;;;;5.58;3.83;;;;;;;16.32;43.79;99369.30;1727292;82;21030;-83
2022/04/24 10:39:28;;;;;;;5.00;2.95;;;;;;;16.36;43.98;99356.21;1725689;82;21461;-75
2022/04/24 10:42:03;;;;;;;6.72;3.30;;;;;;;16.36;43.98;99356.21;1725454;82;21027;-74
2022/04/24 10:44:31;;;;;;;5.87;3.20;;;;;;;16.41;44.07;99360.67;1725463;82;21025;-73
2022/04/24 10:46:59;;;;;;;6.67;4.20;;;;;;;16.31;43.44;99357.05;1722493;82;21194;-73
2022/04/24 10:49:36;;;;;;;4.10;2.83;;;;;;;16.15;43.43;99349.45;1722451;82;21070;-73
2022/04/24 10:52:05;;;;;;;3.40;2.52;;;;;;;16.07;43.64;99340.77;1730927;82;21054;-76
2022/04/24 10:54:39;;;;;;;3.62;2.92;;;;;;;16.04;43.44;99339.20;1727642;82;21004;-73
2022/04/24 10:57:23;;;;;;;5.10;3.70;;;;;;;16.01;43.34;99340.77;1729810;82;21000;-81
2022/04/24 10:59:53;;;;;;;4.08;2.98;;;;;;;15.91;43.00;99337.64;1733659;82;21143;-75
2022/04/24 11:02:33;;;;;;;4.78;3.02;;;;;;;15.68;42.87;99338.01;1723878;82;21422;-74
2022/04/24 11:05:04;;;;;;;12.53;7.78;;;;;;;15.68;42.87;99338.01;1732261;82;21001;-77
2022/04/24 11:07:31;;;;;;;3.72;2.80;;;;;;;15.56;42.96;99338.45;1726306;82;21028;-75
2022/04/24 11:10:10;;;;;;;3.83;2.55;;;;;;;15.44;43.01;99339.38;1722517;82;21102;-76
2022/04/24 11:12:38;;;;;;;4.53;3.00;;;;;;;15.34;43.08;99340.52;1729525;82;22036;-76
2022/04/24 11:15:14;;;;;;;6.83;4.62;;;;;;;15.24;43.21;99343.02;1725476;82;21118;-76
2022/04/24 11:17:41;;;;;;;4.12;2.95;;;;;;;15.14;42.91;99346.78;1731065;82;21075;-77
2022/04/24 11:20:13;;;;;;;3.00;2.70;;;;;;;15.04;43.13;99338.32;1732949;82;21040;-75
2022/04/24 11:22:50;;;;;;;3.92;2.67;;;;;;;14.95;43.21;99336.71;1726419;82;21066;-76
2022/04/24 11:25:22;;;;;;;3.00;2.67;;;;;;;14.94;43.24;99325.80;1728766;82;21210;-74
2022/04/24 11:27:54;;;;;;;3.55;2.70;;;;;;;14.94;43.13;99320.52;1727117;82;21545;-76
2022/04/24 11:30:37;;;;;;;5.12;3.12;;;;;;;14.93;43.13;99318.81;1732284;82;21033;-75
2022/04/24 11:33:06;;;;;;;3.05;2.62;;;;;;;14.98;43.40;99314.54;1731839;82;22214;-74